Time;durP1;ratioP1;P1;durP2;ratioP2;P2;SDS_P1;SDS_P2;PMS_P1;PMS_P2;Temp;Humidity;BMP_temperature;BMP_pressure;BME280_temperature;BME280_humidity;BME280_pressure;Samples;Min_cycle;Max_cycle;Signal;HPM_P1;HPM_P2
2020/12/26 00:01:34;;;;;;;1.40;0.90;;;;;;;2.73;54.37;98562.25;4933539;28;45389;-76
2020/12/26 00:03:59;;;;;;;2.55;1.10;;;;;;;2.81;53.12;98553.91;4934940;28;45750;-76
2020/12/26 00:06:25;;;;;;;2.22;1.10;;;;;;;2.81;53.74;98554.72;4939424;28;46154;-76
2020/12/26 00:08:51;;;;;;;3.78;1.40;;;;;;;2.80;54.14;98558.28;4938249;28;45327;-77
2020/12/26 00:11:19;;;;;;;2.85;1.10;;;;;;;2.85;53.79;98555.38;4939820;28;45469;-76
2020/12/26 00:13:49;;;;;;;1.30;1.05;;;;;;;2.83;53.45;98558.09;4939489;28;45644;-77
2020/12/26 00:16:15;;;;;;;1.15;0.85;;;;;;;2.75;54.10;98550.72;4937921;28;48035;-77
2020/12/26 00:18:42;;;;;;;3.42;1.52;;;;;;;2.83;53.61;98554.66;4938855;28;45243;-77
2020/12/26 00:21:10;;;;;;;2.00;1.10;;;;;;;2.84;54.74;98551.06;4939262;28;45441;-76
2020/12/26 00:23:36;;;;;;;2.85;1.20;;;;;;;2.77;54.43;98556.72;4939471;28;45236;-76
2020/12/26 00:26:02;;;;;;;2.80;1.33;;;;;;;2.85;53.45;98550.13;4939467;28;46188;-76
2020/12/26 00:28:28;;;;;;;3.13;1.27;;;;;;;2.87;54.14;98559.59;4954104;28;45428;-76
2020/12/26 00:30:54;;;;;;;1.63;0.98;;;;;;;2.79;53.78;98558.41;4939556;28;45349;-76
2020/12/26 00:33:19;;;;;;;3.35;1.25;;;;;;;2.82;53.79;98548.53;4939339;28;45614;-76
2020/12/26 00:35:46;;;;;;;1.67;1.08;;;;;;;2.86;53.43;98557.06;4939020;28;45331;-77
2020/12/26 00:38:11;;;;;;;2.25;1.30;;;;;;;2.82;53.85;98563.47;4953931;28;45487;-77
2020/12/26 00:40:37;;;;;;;2.50;1.38;;;;;;;2.85;54.00;98581.66;4939558;28;45334;-77
2020/12/26 00:43:03;;;;;;;1.90;1.10;;;;;;;2.85;53.72;98566.72;4939017;28;45227;-76
2020/12/26 00:45:28;;;;;;;3.08;1.10;;;;;;;2.67;55.94;98567.91;4939267;28;46596;-76
2020/12/26 00:47:54;;;;;;;1.95;1.20;;;;;;;2.67;54.97;98563.50;4939074;28;45421;-77
2020/12/26 00:50:19;;;;;;;1.80;1.27;;;;;;;2.76;53.83;98559.44;4939079;28;45321;-77
2020/12/26 00:52:44;;;;;;;2.17;1.20;;;;;;;2.79;54.19;98561.03;4939033;28;45381;-76
2020/12/26 00:55:10;;;;;;;2.13;1.23;;;;;;;2.77;53.98;98566.38;4938898;28;45310;-76
2020/12/26 00:57:36;;;;;;;2.30;1.23;;;;;;;2.73;53.74;98564.88;4938873;28;45295;-76
2020/12/26 01:00:03;;;;;;;2.05;1.20;;;;;;;2.77;53.87;98561.97;4939248;28;45362;-76
2020/12/26 01:02:28;;;;;;;2.63;1.10;;;;;;;2.73;53.74;98567.50;4925656;28;45451;-76
2020/12/26 01:04:54;;;;;;;2.35;1.20;;;;;;;2.72;53.98;98566.69;4969632;28;48441;-76
2020/12/26 01:07:19;;;;;;;2.50;1.20;;;;;;;2.66;54.27;98553.94;4937456;28;45330;-75
2020/12/26 01:09:44;;;;;;;2.17;1.20;;;;;;;2.74;53.82;98571.81;4939111;28;45308;-77
2020/12/26 01:12:10;;;;;;;1.67;1.15;;;;;;;2.74;54.62;98563.94;4938937;28;45414;-76
2020/12/26 01:14:35;;;;;;;3.10;1.40;;;;;;;2.72;53.94;98565.84;4938919;28;45168;-76
2020/12/26 01:17:01;;;;;;;2.53;1.23;;;;;;;2.83;53.97;98573.03;4937113;28;45226;-76
2020/12/26 01:19:29;;;;;;;2.03;1.02;;;;;;;2.74;53.57;98569.19;4937401;28;45409;-76
2020/12/26 01:21:55;;;;;;;3.72;1.45;;;;;;;2.69;53.04;98566.03;4938636;28;45219;-76
2020/12/26 01:24:21;;;;;;;1.92;1.38;;;;;;;2.71;54.15;98572.88;4937460;28;46860;-77
2020/12/26 01:26:48;;;;;;;2.80;1.20;;;;;;;2.72;53.90;98576.34;4938530;28;45359;-76
2020/12/26 01:29:14;;;;;;;2.72;1.20;;;;;;;2.76;53.22;98576.06;4939000;28;45421;-76
2020/12/26 01:31:40;;;;;;;2.83;1.45;;;;;;;2.67;53.81;98583.66;4941781;28;45703;-78
2020/12/26 01:34:05;;;;;;;1.85;1.08;;;;;;;2.75;53.62;98584.88;4942057;28;45993;-75
2020/12/26 01:36:31;;;;;;;2.30;1.30;;;;;;;2.75;53.48;98584.88;4940041;28;45511;-78
2020/12/26 01:38:56;;;;;;;1.92;1.20;;;;;;;2.74;53.40;98595.47;4940804;28;45473;-77
2020/12/26 01:41:22;;;;;;;2.80;1.40;;;;;;;2.66;54.24;98603.84;4956763;28;45425;-77
2020/12/26 01:43:58;;;;;;;1.63;1.08;;;;;;;2.74;53.89;98611.22;4943585;28;47274;-77
2020/12/26 01:46:28;;;;;;;1.88;1.30;;;;;;;2.68;53.51;98616.88;4942083;28;45513;-77
2020/12/26 01:48:54;;;;;;;1.40;0.98;;;;;;;2.72;53.53;98619.22;4941990;28;45583;-76
2020/12/26 01:51:21;;;;;;;2.03;1.20;;;;;;;2.71;53.31;98617.53;4941349;28;45378;-77
2020/12/26 01:53:48;;;;;;;2.85;1.20;;;;;;;2.73;53.25;98622.66;4940362;28;47311;-76
2020/12/26 01:56:15;;;;;;;1.80;1.40;;;;;;;2.76;53.32;98609.34;4941389;28;45232;-76
2020/12/26 01:58:43;;;;;;;1.75;1.20;;;;;;;2.70;53.25;98622.88;4941741;28;45457;-77
2020/12/26 02:01:09;;;;;;;2.33;1.27;;;;;;;2.71;53.19;98619.31;4941109;28;45708;-76
2020/12/26 02:03:34;;;;;;;1.70;1.30;;;;;;;2.65;53.83;98619.69;4941369;28;45567;-77
2020/12/26 02:06:00;;;;;;;1.88;1.48;;;;;;;2.73;53.30;98633.19;4941071;28;45200;-76
2020/12/26 02:08:25;;;;;;;2.00;1.20;;;;;;;2.69;53.79;98624.66;4941714;28;45252;-78
2020/12/26 02:10:51;;;;;;;2.08;1.45;;;;;;;2.62;53.80;98629.44;4941537;28;45608;-77
2020/12/26 02:13:17;;;;;;;1.50;1.10;;;;;;;2.65;53.67;98630.19;4941023;28;45962;-77
2020/12/26 02:15:42;;;;;;;1.73;1.30;;;;;;;2.67;53.40;98638.81;4941163;28;45317;-76
2020/12/26 02:18:07;;;;;;;1.98;1.23;;;;;;;2.67;53.35;98641.44;4941232;28;45252;-76
2020/12/26 02:20:34;;;;;;;1.95;1.15;;;;;;;2.55;53.55;98643.03;4941488;28;45369;-76
2020/12/26 02:23:02;;;;;;;1.77;1.20;;;;;;;2.63;53.02;98646.91;4941231;28;45316;-77
2020/12/26 02:25:28;;;;;;;3.83;1.40;;;;;;;2.67;53.59;98642.31;4928918;28;45303;-76
2020/12/26 02:27:55;;;;;;;1.80;1.30;;;;;;;2.61;53.21;98640.03;4939555;28;45774;-76
2020/12/26 02:30:20;;;;;;;2.15;1.42;;;;;;;2.51;54.34;98636.31;4941283;28;45642;-77
2020/12/26 02:32:45;;;;;;;2.13;1.30;;;;;;;2.61;53.47;98643.53;4940671;28;46108;-75
2020/12/26 02:35:11;;;;;;;3.10;1.40;;;;;;;2.60;53.75;98644.47;4940919;28;45304;-78
2020/12/26 02:37:36;;;;;;;1.58;1.10;;;;;;;2.60;54.07;98646.22;4928096;28;45489;-77
2020/12/26 02:40:02;;;;;;;2.67;1.33;;;;;;;2.61;53.48;98651.41;4940891;28;45303;-77
2020/12/26 02:42:28;;;;;;;1.73;1.20;;;;;;;2.49;53.33;98654.78;4939371;28;47427;-77
2020/12/26 02:44:53;;;;;;;1.38;1.20;;;;;;;2.54;54.03;98652.72;4943035;28;45323;-76
2020/12/26 02:47:19;;;;;;;1.77;1.20;;;;;;;2.53;53.42;98658.91;4940853;28;45376;-77
2020/12/26 02:49:44;;;;;;;2.22;1.45;;;;;;;2.51;53.98;98663.41;4940777;28;45551;-76
2020/12/26 02:52:09;;;;;;;2.25;1.50;;;;;;;2.52;53.96;98651.97;4940528;28;46163;-77
2020/12/26 02:54:35;;;;;;;3.08;1.33;;;;;;;2.51;53.35;98652.91;4940712;28;45372;-77
2020/12/26 02:57:00;;;;;;;3.47;1.10;;;;;;;2.46;54.56;98668.94;4940715;28;45421;-76
2020/12/26 02:59:25;;;;;;;2.60;1.80;;;;;;;2.52;54.21;98669.50;4955457;28;45447;-77
2020/12/26 03:01:51;;;;;;;2.58;1.50;;;;;;;2.43;53.48;98663.88;4940033;28;46087;-78
2020/12/26 03:04:16;;;;;;;3.30;1.48;;;;;;;2.44;53.20;98652.44;4940220;28;45294;-77
2020/12/26 03:06:42;;;;;;;2.38;1.35;;;;;;;2.46;53.74;98654.97;4940560;28;45435;-76
2020/12/26 03:09:07;;;;;;;1.85;1.27;;;;;;;2.38;55.07;98654.59;4940605;28;45405;-78
2020/12/26 03:11:32;;;;;;;2.20;1.38;;;;;;;2.35;54.67;98657.44;4940355;28;45313;-76
2020/12/26 03:13:58;;;;;;;1.75;1.25;;;;;;;2.39;53.75;98653.66;4955443;28;45389;-76
2020/12/26 03:16:23;;;;;;;1.42;1.10;;;;;;;2.31;55.46;98651.50;4938903;28;45343;-76
2020/12/26 03:18:49;;;;;;;5.70;1.98;;;;;;;2.27;54.71;98664.00;4940437;28;45353;-76
2020/12/26 03:21:14;;;;;;;4.55;2.08;;;;;;;2.37;54.20;98677.38;4939879;28;45970;-76
2020/12/26 03:23:40;;;;;;;2.38;1.50;;;;;;;2.30;53.95;98674.31;4940431;28;45333;-76
2020/12/26 03:26:05;;;;;;;4.82;1.30;;;;;;;2.22;55.09;98673.06;4940372;28;45550;-76
2020/12/26 03:28:31;;;;;;;2.10;1.33;;;;;;;2.32;54.50;98680.31;4940408;28;45515;-77
2020/12/26 03:30:56;;;;;;;1.42;1.33;;;;;;;2.31;54.63;98688.25;4939969;28;45277;-76
2020/12/26 03:33:21;;;;;;;1.92;1.42;;;;;;;2.38;54.24;98691.38;4940160;28;45253;-76
2020/12/26 03:35:47;;;;;;;3.15;1.58;;;;;;;2.40;54.37;98686.88;4936085;28;45377;-75
2020/12/26 03:38:12;;;;;;;3.67;1.70;;;;;;;2.35;54.16;98678.44;4929667;28;45499;-77
2020/12/26 03:40:37;;;;;;;2.85;1.58;;;;;;;2.32;54.29;98680.31;4939924;28;45486;-77
2020/12/26 03:43:03;;;;;;;2.15;1.40;;;;;;;2.37;53.63;98681.81;4940113;28;45425;-78
2020/12/26 03:45:28;;;;;;;2.75;1.40;;;;;;;2.42;54.34;98690.25;4940103;28;45180;-78
2020/12/26 03:47:54;;;;;;;2.90;1.50;;;;;;;2.37;54.28;98695.75;4940009;28;45524;-76
2020/12/26 03:50:19;;;;;;;3.55;1.98;;;;;;;2.29;54.67;98693.63;4939490;28;45272;-77
2020/12/26 03:52:44;;;;;;;3.55;1.70;;;;;;;2.28;55.13;98702.41;4939124;28;45283;-76
2020/12/26 03:55:10;;;;;;;2.22;1.30;;;;;;;2.28;54.45;98694.53;4939843;28;45355;-77
2020/12/26 03:57:35;;;;;;;2.30;1.52;;;;;;;2.41;54.20;98697.25;4939852;28;45533;-76
2020/12/26 04:00:01;;;;;;;2.65;1.30;;;;;;;2.26;54.11;98691.16;4939751;28;46187;-77
2020/12/26 04:02:26;;;;;;;2.15;1.20;;;;;;;2.30;54.70;98697.06;4939264;28;45347;-78
2020/12/26 04:04:52;;;;;;;1.92;1.50;;;;;;;2.35;55.61;98705.50;4938129;28;45338;-77
2020/12/26 04:07:17;;;;;;;2.30;1.42;;;;;;;2.29;55.28;98708.50;4938413;28;45396;-76
2020/12/26 04:09:42;;;;;;;1.63;1.40;;;;;;;2.31;54.77;98712.72;4939432;28;46426;-76
2020/12/26 04:12:08;;;;;;;1.90;1.40;;;;;;;2.29;54.75;98706.72;4939749;28;45319;-77
2020/12/26 04:14:33;;;;;;;3.13;1.42;;;;;;;2.23;55.64;98706.25;4939568;28;45314;-76
2020/12/26 04:16:59;;;;;;;2.05;1.40;;;;;;;2.29;54.45;98719.84;4939547;28;45418;-78
2020/12/26 04:19:26;;;;;;;1.92;1.25;;;;;;;2.23;55.53;98725.47;4938925;28;45501;-76
2020/12/26 04:21:52;;;;;;;2.30;1.20;;;;;;;2.25;54.84;98718.34;4938096;28;45278;-77
2020/12/26 04:24:18;;;;;;;2.20;1.58;;;;;;;2.26;54.73;98722.66;4938124;28;45293;-76
2020/12/26 04:26:43;;;;;;;2.17;1.52;;;;;;;2.30;53.85;98713.66;4939670;28;45291;-76
2020/12/26 04:29:09;;;;;;;2.40;1.30;;;;;;;2.07;55.25;98707.16;4939228;28;45923;-77
2020/12/26 04:31:35;;;;;;;1.77;1.35;;;;;;;2.16;55.11;98726.75;4939335;28;45288;-76
2020/12/26 04:34:00;;;;;;;4.28;1.50;;;;;;;2.28;54.21;98727.81;4938080;28;45377;-76
2020/12/26 04:36:26;;;;;;;2.80;1.83;;;;;;;2.27;54.28;98736.63;4930201;28;45323;-76
2020/12/26 04:38:51;;;;;;;3.38;1.30;;;;;;;2.19;54.16;98752.81;4935069;28;46168;-77
2020/12/26 04:41:19;;;;;;;2.22;1.65;;;;;;;2.10;54.46;98750.72;4938059;28;45370;-76
2020/12/26 04:43:45;;;;;;;2.63;1.40;;;;;;;2.13;54.52;98758.41;4939178;28;45469;-76
2020/12/26 04:46:18;;;;;;;2.35;1.48;;;;;;;2.24;54.12;98756.03;4937900;28;45251;-76
2020/12/26 04:48:53;;;;;;;2.53;1.45;;;;;;;2.24;53.83;98755.19;4939029;28;45416;-76
2020/12/26 04:51:19;;;;;;;1.92;1.52;;;;;;;2.15;53.90;98759.19;4939023;28;45441;-76
2020/12/26 04:53:51;;;;;;;2.38;1.60;;;;;;;2.04;55.50;98760.66;4939181;28;45350;-76
2020/12/26 04:56:19;;;;;;;1.88;1.63;;;;;;;2.13;53.85;98766.28;4937577;28;45513;-77
2020/12/26 04:58:48;;;;;;;2.08;1.50;;;;;;;1.85;54.93;98770.53;4939079;28;45439;-77
2020/12/26 05:01:15;;;;;;;2.67;1.55;;;;;;;2.10;53.77;98764.72;4938579;28;45401;-77
2020/12/26 05:03:40;;;;;;;2.88;1.38;;;;;;;2.15;54.05;98769.66;4940064;28;45362;-76
2020/12/26 05:06:06;;;;;;;2.80;1.60;;;;;;;2.16;53.86;98763.50;4942032;28;45585;-76
2020/12/26 05:08:33;;;;;;;2.05;1.48;;;;;;;2.16;54.49;98761.72;4940920;28;47037;-78
2020/12/26 05:10:59;;;;;;;2.50;1.52;;;;;;;2.10;54.16;98755.97;4940979;28;45399;-76
2020/12/26 05:13:24;;;;;;;3.22;1.70;;;;;;;1.83;54.30;98770.63;4957139;28;45282;-75
2020/12/26 05:15:55;;;;;;;1.92;1.42;;;;;;;2.06;54.43;98763.19;4942035;28;45259;-77
2020/12/26 05:18:21;;;;;;;3.28;1.50;;;;;;;1.97;53.60;98767.19;4940824;28;47448;-76
2020/12/26 05:20:47;;;;;;;2.40;1.55;;;;;;;2.08;53.93;98768.34;4941644;28;45307;-76
2020/12/26 05:23:17;;;;;;;3.38;1.52;;;;;;;2.08;53.48;98776.22;4942516;28;45322;-76
2020/12/26 05:25:45;;;;;;;2.00;1.50;;;;;;;2.10;53.92;98772.59;4957019;28;45437;-76
2020/12/26 05:28:20;;;;;;;2.03;1.50;;;;;;;2.16;53.77;98771.38;4942021;28;46169;-76
2020/12/26 05:30:49;;;;;;;2.05;1.40;;;;;;;2.14;53.59;98767.97;4940596;28;45403;-76
2020/12/26 05:33:15;;;;;;;3.35;1.52;;;;;;;2.13;53.69;98768.91;4941973;28;45351;-76
2020/12/26 05:35:49;;;;;;;3.40;1.58;;;;;;;2.11;53.89;98758.53;4938716;28;45522;-75
2020/12/26 05:38:20;;;;;;;1.55;1.20;;;;;;;2.12;53.38;98760.22;4932948;28;45263;-76
2020/12/26 05:40:52;;;;;;;1.75;1.40;;;;;;;1.99;53.93;98754.81;4940504;28;45477;-76
2020/12/26 05:43:23;;;;;;;2.40;1.50;;;;;;;2.14;53.49;98754.84;4956782;28;45254;-76
2020/12/26 05:45:49;;;;;;;2.83;1.73;;;;;;;2.03;54.23;98753.72;4956657;28;45395;-76
2020/12/26 05:48:23;;;;;;;2.08;1.58;;;;;;;1.96;54.56;98751.56;4940403;28;48660;-76
2020/12/26 05:50:50;;;;;;;2.30;1.40;;;;;;;1.96;53.98;98760.25;4929609;28;45481;-76
2020/12/26 05:53:16;;;;;;;1.75;1.33;;;;;;;1.99;54.25;98759.25;4940408;28;45391;-75
2020/12/26 05:55:44;;;;;;;2.58;1.63;;;;;;;2.03;53.75;98761.59;4941696;28;45371;-75
2020/12/26 05:58:11;;;;;;;2.58;1.60;;;;;;;2.01;54.57;98758.22;4941393;28;45458;-76
2020/12/26 06:00:41;;;;;;;2.42;1.40;;;;;;;2.03;54.33;98756.34;4941504;28;45515;-76
2020/12/26 06:03:33;;;;;;;2.30;1.60;;;;;;;2.08;53.97;98758.72;4940098;28;45465;-77
2020/12/26 06:06:01;;;;;;;2.33;1.60;;;;;;;2.02;53.98;98751.19;4946448;28;45341;-75
2020/12/26 06:08:28;;;;;;;2.42;1.58;;;;;;;2.00;54.11;98759.13;4936211;28;46360;-76
2020/12/26 06:11:00;;;;;;;2.50;1.52;;;;;;;2.08;53.29;98757.84;4940758;28;45538;-76
2020/12/26 06:13:28;;;;;;;2.75;1.73;;;;;;;2.10;53.82;98759.47;4940630;28;45403;-76
2020/12/26 06:16:11;;;;;;;3.95;1.60;;;;;;;2.01;53.36;98750.34;4939472;28;45310;-76
2020/12/26 06:18:42;;;;;;;3.60;1.58;;;;;;;2.00;53.77;98760.94;4940450;28;46163;-76
2020/12/26 06:21:08;;;;;;;2.30;1.63;;;;;;;2.00;54.69;98768.81;4940101;28;45488;-76
2020/12/26 06:23:40;;;;;;;3.50;2.10;;;;;;;2.07;53.96;98772.75;4940583;28;45486;-75
2020/12/26 06:26:06;;;;;;;3.38;2.00;;;;;;;2.09;54.02;98770.03;4955460;28;45773;-76
2020/12/26 06:28:33;;;;;;;2.35;1.83;;;;;;;2.01;54.24;98779.19;4938465;28;46020;-76
2020/12/26 06:31:09;;;;;;;2.78;1.60;;;;;;;2.08;54.51;98781.47;4939952;28;45410;-76
2020/12/26 06:33:46;;;;;;;1.60;1.23;;;;;;;2.10;53.76;98788.31;4940342;28;45417;-75
2020/12/26 06:36:12;;;;;;;2.50;1.52;;;;;;;2.06;54.17;98794.69;4939935;28;45208;-76
2020/12/26 06:38:40;;;;;;;2.35;1.45;;;;;;;2.01;54.18;98792.31;4939935;28;45348;-76
2020/12/26 06:41:07;;;;;;;14.73;6.93;;;;;;;1.87;53.70;98801.00;4940046;28;45610;-75
2020/12/26 06:43:52;;;;;;;2.83;1.70;;;;;;;1.86;53.75;98798.44;4940430;28;45294;-76
2020/12/26 06:46:17;;;;;;;2.72;1.83;;;;;;;1.92;53.73;98799.88;4937885;28;45414;-76
2020/12/26 06:48:46;;;;;;;3.65;1.75;;;;;;;2.02;53.55;98804.50;4940134;28;45420;-76
2020/12/26 06:51:29;;;;;;;4.07;2.40;;;;;;;2.00;52.72;98824.72;4939905;28;45434;-76
2020/12/26 06:53:59;;;;;;;4.20;2.30;;;;;;;2.04;52.46;98818.38;4940025;28;45379;-76
2020/12/26 06:56:45;;;;;;;3.72;2.20;;;;;;;2.01;53.26;98828.22;4940148;28;45517;-76
2020/12/26 06:59:15;;;;;;;4.10;2.33;;;;;;;1.93;53.58;98823.41;4952962;28;48298;-76
2020/12/26 07:01:45;;;;;;;3.65;2.40;;;;;;;1.96;52.71;98828.47;4954436;28;45279;-76
2020/12/26 07:04:13;;;;;;;2.83;1.98;;;;;;;1.99;52.56;98835.34;4939640;28;45428;-76
2020/12/26 07:06:40;;;;;;;3.08;2.38;;;;;;;2.00;53.10;98829.16;4939899;28;45330;-77
2020/12/26 07:09:07;;;;;;;2.95;2.20;;;;;;;1.98;52.42;98839.72;4929381;28;45448;-77
2020/12/26 07:11:41;;;;;;;3.63;2.28;;;;;;;1.95;53.16;98847.75;4936244;28;45421;-76
2020/12/26 07:14:07;;;;;;;2.28;1.50;;;;;;;1.86;53.26;98838.66;4936225;28;45365;-76
2020/12/26 07:16:45;;;;;;;2.03;1.65;;;;;;;1.84;53.18;98837.03;4939311;28;45383;-76
2020/12/26 07:19:20;;;;;;;3.60;1.95;;;;;;;1.79;53.54;98839.94;4938919;28;46041;-76
2020/12/26 07:21:49;;;;;;;4.25;2.50;;;;;;;1.85;53.42;98843.97;4939663;28;45699;-76
2020/12/26 07:24:25;;;;;;;17.30;6.23;;;;;;;1.86;53.61;98850.91;4939418;28;45466;-76
2020/12/26 07:26:52;;;;;;;5.50;3.40;;;;;;;1.82;53.28;98844.16;4937502;28;45482;-76
2020/12/26 07:29:25;;;;;;;3.40;2.20;;;;;;;1.82;52.95;98847.63;4939094;28;45384;-76
2020/12/26 07:31:51;;;;;;;10.57;4.80;;;;;;;1.81;53.34;98852.94;4925935;28;45301;-75
2020/12/26 07:34:49;;;;;;;5.80;3.38;;;;;;;1.84;53.53;98850.16;4937671;28;45287;-76
2020/12/26 07:37:18;;;;;;;4.22;2.42;;;;;;;1.81;52.82;98853.81;4902476;28;45601;-76
2020/12/26 07:39:45;;;;;;;2.47;1.70;;;;;;;1.92;52.56;98861.06;4937900;28;45468;-78
2020/12/26 07:42:15;;;;;;;2.95;2.08;;;;;;;1.95;51.94;98860.03;4954224;28;45291;-78
2020/12/26 07:44:40;;;;;;;2.33;1.67;;;;;;;1.94;52.00;98858.34;4931622;28;45655;-77
2020/12/26 07:47:06;;;;;;;2.85;1.75;;;;;;;1.91;52.00;98848.88;4931687;28;45560;-76
2020/12/26 07:49:32;;;;;;;2.22;1.70;;;;;;;1.97;51.83;98859.00;4937379;28;48134;-76
2020/12/26 07:52:06;;;;;;;3.90;1.95;;;;;;;1.92;52.14;98852.34;4938586;28;45381;-76
2020/12/26 07:54:31;;;;;;;2.78;1.90;;;;;;;1.96;52.71;98857.31;4937868;28;45367;-76
2020/12/26 07:56:57;;;;;;;3.35;1.88;;;;;;;2.00;51.71;98845.72;4938875;28;45478;-78
2020/12/26 07:59:23;;;;;;;3.15;2.33;;;;;;;1.99;52.35;98853.69;4953036;28;47235;-79
2020/12/26 08:01:53;;;;;;;4.65;2.67;;;;;;;1.95;52.48;98842.50;4953258;28;45570;-76
2020/12/26 08:04:19;;;;;;;4.22;2.03;;;;;;;1.94;52.35;98851.31;4932809;28;45375;-76
2020/12/26 08:06:46;;;;;;;4.38;2.38;;;;;;;1.91;52.29;98854.13;4938838;28;45454;-77
2020/12/26 08:09:16;;;;;;;4.25;2.30;;;;;;;1.89;52.19;98871.72;4937029;28;47396;-76
2020/12/26 08:11:43;;;;;;;3.22;2.28;;;;;;;1.93;52.06;98867.16;4938465;28;45285;-76
2020/12/26 08:14:09;;;;;;;4.43;2.45;;;;;;;1.93;52.39;98880.28;4953527;28;45450;-78
2020/12/26 08:16:36;;;;;;;8.02;3.72;;;;;;;1.93;51.90;98881.09;4936596;28;45413;-77
2020/12/26 08:19:03;;;;;;;2.90;1.98;;;;;;;1.87;52.41;98881.44;4930867;28;47376;-75
2020/12/26 08:21:29;;;;;;;4.78;2.90;;;;;;;1.96;52.64;98880.09;4931573;28;45744;-75
2020/12/26 08:23:59;;;;;;;4.28;3.03;;;;;;;1.89;52.51;98896.19;4937692;28;45515;-77
2020/12/26 08:26:25;;;;;;;4.67;2.23;;;;;;;1.79;52.85;98887.13;4924659;28;45535;-76
2020/12/26 08:28:54;;;;;;;3.13;1.95;;;;;;;1.88;52.62;98893.63;4929052;28;45544;-76
2020/12/26 08:31:22;;;;;;;2.55;1.73;;;;;;;1.92;52.43;98894.31;4934548;28;45473;-76
2020/12/26 08:33:56;;;;;;;3.75;2.00;;;;;;;1.96;52.89;98909.78;4937346;28;45603;-76
2020/12/26 08:36:28;;;;;;;3.83;1.40;;;;;;;1.91;54.02;98906.59;4936012;28;45702;-76
2020/12/26 08:39:01;;;;;;;3.45;1.65;;;;;;;2.02;53.33;98906.00;4921282;28;45531;-76
2020/12/26 08:41:29;;;;;;;3.67;1.70;;;;;;;2.00;52.77;98915.72;4924808;28;45438;-76
2020/12/26 08:43:55;;;;;;;3.83;1.90;;;;;;;2.02;52.84;98914.69;4928511;28;45489;-76
2020/12/26 08:46:23;;;;;;;4.28;1.90;;;;;;;2.07;53.02;98931.97;4950180;28;45508;-76
2020/12/26 08:48:50;;;;;;;3.97;2.00;;;;;;;2.04;52.83;98928.56;4951008;28;47722;-76
2020/12/26 08:51:18;;;;;;;3.00;1.90;;;;;;;2.02;52.78;98927.81;4935958;28;45497;-76
2020/12/26 08:53:45;;;;;;;3.00;1.88;;;;;;;2.10;52.50;98937.91;4937338;28;45532;-79
2020/12/26 08:56:10;;;;;;;3.22;1.77;;;;;;;2.10;52.29;98934.41;4949626;28;45559;-76
2020/12/26 08:58:36;;;;;;;2.85;1.75;;;;;;;2.15;52.31;98943.72;4937771;28;45437;-76
2020/12/26 09:01:04;;;;;;;2.40;1.60;;;;;;;1.85;52.96;98933.16;4951867;28;45524;-76
2020/12/26 09:03:32;;;;;;;5.13;2.13;;;;;;;2.18;52.96;98937.44;4952628;28;45368;-76
2020/12/26 09:05:59;;;;;;;2.63;1.90;;;;;;;2.10;53.02;98934.41;4936245;28;45679;-76
2020/12/26 09:08:32;;;;;;;3.13;1.60;;;;;;;2.26;51.89;98927.41;4934049;28;46010;-76
2020/12/26 09:11:09;;;;;;;2.72;1.70;;;;;;;2.32;52.20;98919.19;4942377;28;45388;-76
2020/12/26 09:13:39;;;;;;;3.63;2.10;;;;;;;2.32;52.14;98931.44;4937981;28;45453;-76
2020/12/26 09:16:11;;;;;;;3.88;2.33;;;;;;;2.21;51.95;98937.31;4953194;28;45270;-76
2020/12/26 09:18:39;;;;;;;4.25;2.25;;;;;;;2.35;52.31;98940.94;4938106;28;45411;-82
2020/12/26 09:21:06;;;;;;;3.20;1.73;;;;;;;2.30;52.87;98943.81;4938094;28;45381;-76
2020/12/26 09:23:38;;;;;;;3.60;2.13;;;;;;;2.28;52.26;98930.78;4938863;28;45296;-76
2020/12/26 09:26:14;;;;;;;3.90;1.83;;;;;;;2.30;52.22;98930.69;4938613;28;45628;-76
2020/12/26 09:28:46;;;;;;;3.78;1.95;;;;;;;2.32;51.82;98934.06;4926889;28;46037;-75
2020/12/26 09:31:13;;;;;;;7.45;2.85;;;;;;;2.33;51.83;98943.63;4938445;28;45322;-77
2020/12/26 09:33:39;;;;;;;5.30;3.30;;;;;;;2.24;51.87;98942.38;4938959;28;45289;-76
2020/12/26 09:36:06;;;;;;;8.32;4.97;;;;;;;2.24;51.95;98950.25;4937938;28;45540;-77
2020/12/26 09:38:31;;;;;;;5.40;2.88;;;;;;;2.15;51.85;98941.13;4938597;28;45389;-77
2020/12/26 09:40:56;;;;;;;5.22;2.90;;;;;;;2.21;52.17;98952.19;4937880;28;45262;-77
2020/12/26 09:43:23;;;;;;;4.70;3.33;;;;;;;2.15;51.93;98948.13;4938419;28;45251;-77
2020/12/26 09:45:48;;;;;;;4.13;2.47;;;;;;;2.14;52.48;98944.66;4938304;28;45504;-76
2020/12/26 09:48:14;;;;;;;4.78;3.20;;;;;;;2.07;52.58;98947.72;4937525;28;46210;-76
2020/12/26 09:50:39;;;;;;;3.97;2.92;;;;;;;2.06;53.15;98940.75;4938588;28;45449;-76
2020/12/26 09:53:05;;;;;;;6.30;3.83;;;;;;;2.10;52.89;98942.28;4939499;28;45445;-77
2020/12/26 09:55:30;;;;;;;3.83;2.38;;;;;;;2.11;52.60;98944.84;4941475;28;45630;-78
2020/12/26 09:57:56;;;;;;;4.63;2.70;;;;;;;2.08;52.52;98942.38;4938716;28;46405;-76
2020/12/26 10:00:21;;;;;;;3.05;2.03;;;;;;;2.09;52.72;98945.84;4938994;28;45584;-76
2020/12/26 10:02:47;;;;;;;6.65;2.42;;;;;;;2.10;52.96;98948.41;4940055;28;45334;-77
2020/12/26 10:05:16;;;;;;;3.90;2.45;;;;;;;2.07;52.64;98945.94;4940039;28;45608;-75
2020/12/26 10:07:41;;;;;;;3.35;2.50;;;;;;;2.01;52.93;98943.66;4940691;28;45450;-75
2020/12/26 10:10:07;;;;;;;4.93;2.20;;;;;;;2.03;53.06;98958.38;4938637;28;45449;-75
2020/12/26 10:12:32;;;;;;;4.20;2.10;;;;;;;1.96;52.70;98943.91;4940119;28;45412;-75
2020/12/26 10:14:57;;;;;;;4.15;2.53;;;;;;;2.08;53.11;98947.63;4941047;28;45262;-76
2020/12/26 10:17:23;;;;;;;4.57;2.90;;;;;;;2.06;53.05;98940.75;4940875;28;46211;-76
2020/12/26 10:19:48;;;;;;;4.10;2.38;;;;;;;2.14;52.59;98949.06;4937698;28;45420;-76
2020/12/26 10:22:14;;;;;;;4.70;2.40;;;;;;;2.08;53.30;98941.53;4940421;28;45362;-75
2020/12/26 10:24:39;;;;;;;3.10;2.00;;;;;;;2.15;53.16;98941.13;4939384;28;45623;-75
2020/12/26 10:27:05;;;;;;;4.63;2.15;;;;;;;2.16;52.67;98936.69;4940146;28;45510;-75
2020/12/26 10:29:30;;;;;;;5.40;2.30;;;;;;;2.18;52.64;98940.06;4938119;28;45496;-76
2020/12/26 10:31:55;;;;;;;3.45;2.00;;;;;;;2.17;52.31;98931.38;4940209;28;45223;-75
2020/12/26 10:34:21;;;;;;;3.72;2.35;;;;;;;2.25;52.52;98936.22;4938577;28;45487;-75
2020/12/26 10:36:46;;;;;;;4.28;2.67;;;;;;;2.28;52.43;98932.53;4935432;28;45496;-72
2020/12/26 10:39:12;;;;;;;4.32;2.22;;;;;;;2.32;51.90;98929.69;4940258;28;45439;-73
2020/12/26 10:41:42;;;;;;;4.47;2.53;;;;;;;2.27;51.94;98939.59;4940450;28;45353;-73
2020/12/26 10:44:07;;;;;;;4.35;2.35;;;;;;;2.42;52.20;98937.03;4939945;28;45613;-73
2020/12/26 10:46:32;;;;;;;3.97;2.03;;;;;;;2.43;52.02;98929.03;4940225;28;46035;-73
2020/12/26 10:48:58;;;;;;;3.03;2.08;;;;;;;2.38;51.71;98938.97;4940082;28;45403;-76
2020/12/26 10:51:23;;;;;;;5.32;2.30;;;;;;;2.40;50.86;98938.91;4939570;28;45475;-76
2020/12/26 10:53:49;;;;;;;3.63;2.25;;;;;;;2.40;51.43;98931.00;4940183;28;45582;-73
2020/12/26 10:56:14;;;;;;;3.90;2.35;;;;;;;2.44;52.00;98930.75;4935461;28;46015;-75
2020/12/26 10:58:39;;;;;;;4.15;2.22;;;;;;;2.52;51.71;98926.81;4940490;28;45362;-74
2020/12/26 11:01:05;;;;;;;4.95;3.17;;;;;;;2.72;51.01;98929.16;4938744;28;45596;-74
2020/12/26 11:03:30;;;;;;;5.15;2.30;;;;;;;2.65;50.48;98937.47;4939021;28;45389;-75
2020/12/26 11:05:56;;;;;;;4.28;2.20;;;;;;;2.71;50.89;98921.34;4939836;28;46044;-74
2020/12/26 11:08:21;;;;;;;3.95;2.50;;;;;;;2.73;50.39;98920.34;4940357;28;45228;-74
2020/12/26 11:10:46;;;;;;;4.82;2.67;;;;;;;2.71;51.12;98918.72;4940183;28;45304;-74
2020/12/26 11:13:12;;;;;;;4.90;2.78;;;;;;;2.71;50.96;98913.47;4955469;28;45556;-74
2020/12/26 11:15:37;;;;;;;5.07;3.05;;;;;;;2.67;51.10;98911.97;4939699;28;45290;-74
2020/12/26 11:18:03;;;;;;;5.78;2.40;;;;;;;2.81;50.65;98914.63;4940188;28;45295;-73
2020/12/26 11:20:29;;;;;;;4.72;2.58;;;;;;;2.81;50.71;98912.00;4939426;28;45243;-75
2020/12/26 11:22:54;;;;;;;4.40;2.47;;;;;;;2.66;51.53;98902.41;4939145;28;45485;-74
2020/12/26 11:25:20;;;;;;;3.35;2.00;;;;;;;2.79;50.60;98906.00;4939876;28;45537;-74
2020/12/26 11:27:45;;;;;;;4.18;2.30;;;;;;;2.83;50.22;98902.25;4940544;28;45310;-74
2020/12/26 11:30:11;;;;;;;8.88;4.38;;;;;;;2.83;50.85;98904.88;4939767;28;45571;-74
2020/12/26 11:32:36;;;;;;;3.63;2.22;;;;;;;2.89;50.52;98895.78;4940238;28;45345;-74
2020/12/26 11:35:02;;;;;;;5.43;2.53;;;;;;;2.84;50.62;98885.53;4939387;28;46091;-75
2020/12/26 11:37:30;;;;;;;3.35;1.92;;;;;;;2.94;50.48;98888.47;4939520;28;45372;-75
2020/12/26 11:39:55;;;;;;;3.33;2.28;;;;;;;2.91;50.70;98886.88;4939827;28;45605;-74
2020/12/26 11:42:20;;;;;;;3.25;2.03;;;;;;;2.77;50.45;98879.81;4939798;28;45262;-79